Time;durP1;ratioP1;P1;durP2;ratioP2;P2;SDS_P1;SDS_P2;PMS_P1;PMS_P2;Temp;Humidity;BMP_temperature;BMP_pressure;BME280_temperature;BME280_humidity;BME280_pressure;Samples;Min_cycle;Max_cycle;Signal;HPM_P1;HPM_P2
2024/04/04 00:00:09;;;;;;;5.13;1.40;;;7.90;99.90;;;;;;5085045;28;20104;-63
2024/04/04 00:02:55;;;;;;;12.32;1.98;;;7.90;99.90;;;;;;5090318;28;20075;-63
2024/04/04 00:05:41;;;;;;;4.95;0.93;;;7.90;99.90;;;;;;5082518;28;20042;-63
2024/04/04 00:08:27;;;;;;;4.35;0.80;;;7.90;99.90;;;;;;5084430;28;20035;-63
2024/04/04 00:11:13;;;;;;;10.05;1.50;;;7.90;99.90;;;;;;5085028;28;20035;-63
2024/04/04 00:13:59;;;;;;;4.20;0.90;;;7.90;99.90;;;;;;5089336;28;20831;-63
2024/04/04 00:16:45;;;;;;;4.00;1.30;;;7.80;99.90;;;;;;5082328;28;20469;-63
2024/04/04 00:19:31;;;;;;;4.95;1.15;;;7.70;99.90;;;;;;5074029;28;20036;-63
2024/04/04 00:22:17;;;;;;;5.13;1.20;;;7.70;99.90;;;;;;5074133;28;20023;-63
2024/04/04 00:25:03;;;;;;;8.95;1.10;;;7.60;99.90;;;;;;5074340;28;20637;-63
2024/04/04 00:27:49;;;;;;;5.53;1.55;;;7.60;99.90;;;;;;5074935;28;20077;-63
2024/04/04 00:30:35;;;;;;;9.77;1.20;;;7.50;99.90;;;;;;5060176;28;20106;-63
2024/04/04 00:33:22;;;;;;;2.75;0.95;;;7.50;99.90;;;;;;5084921;28;20036;-63
2024/04/04 00:36:08;;;;;;;3.85;1.13;;;7.40;99.90;;;;;;5084342;28;20040;-63
2024/04/04 00:38:53;;;;;;;7.63;1.55;;;7.40;99.90;;;;;;5082798;28;20100;-63
2024/04/04 00:41:40;;;;;;;6.00;0.98;;;7.30;99.90;;;;;;5081528;28;20043;-63
2024/04/04 00:44:26;;;;;;;4.55;0.82;;;7.30;99.90;;;;;;5081815;28;20036;-63
2024/04/04 00:47:12;;;;;;;3.35;0.98;;;7.20;99.90;;;;;;5082424;28;20063;-63
2024/04/04 00:49:58;;;;;;;9.20;0.80;;;7.20;99.90;;;;;;5081057;28;20432;-63
2024/04/04 00:52:44;;;;;;;8.65;0.90;;;7.10;99.90;;;;;;5080710;28;20043;-63
2024/04/04 00:55:30;;;;;;;5.83;0.83;;;7.00;99.90;;;;;;5081379;28;20039;-63
2024/04/04 00:58:18;;;;;;;8.40;1.00;;;7.10;99.90;;;;;;5083035;28;20124;-63
2024/04/04 01:01:03;;;;;;;11.20;1.10;;;7.00;99.90;;;;;;5080678;28;20112;-63
2024/04/04 01:03:49;;;;;;;4.47;1.08;;;7.00;99.90;;;;;;5084713;28;20378;-63
2024/04/04 01:06:37;;;;;;;8.68;1.42;;;7.10;99.90;;;;;;5077075;28;20086;-63
2024/04/04 01:09:23;;;;;;;6.78;1.08;;;7.10;99.90;;;;;;5084609;28;20028;-63
2024/04/04 01:12:09;;;;;;;11.80;1.45;;;7.20;99.90;;;;;;5084544;28;20028;-63
2024/04/04 01:14:55;;;;;;;7.17;0.90;;;7.20;99.90;;;;;;5081657;28;20725;-63
2024/04/04 01:17:41;;;;;;;6.50;0.80;;;7.20;99.90;;;;;;5084608;28;20424;-63
2024/04/04 01:20:27;;;;;;;4.32;1.02;;;7.20;99.90;;;;;;5082944;28;20032;-63
2024/04/04 01:23:13;;;;;;;3.23;1.00;;;7.20;99.90;;;;;;5082861;28;20442;-63
2024/04/04 01:25:58;;;;;;;9.73;1.20;;;7.20;99.90;;;;;;5078031;28;20105;-63
2024/04/04 01:28:47;;;;;;;8.48;1.40;;;7.30;99.90;;;;;;5079370;28;20133;-63
2024/04/04 01:31:33;;;;;;;9.07;1.52;;;7.30;99.90;;;;;;5077384;28;20044;-63
2024/04/04 01:34:19;;;;;;;6.40;1.23;;;7.30;99.90;;;;;;5101339;28;20436;-63
2024/04/04 01:37:05;;;;;;;9.25;1.30;;;7.20;99.90;;;;;;5103053;28;20035;-63
2024/04/04 01:39:51;;;;;;;9.30;1.20;;;7.20;99.90;;;;;;5099037;28;20058;-63
2024/04/04 01:42:37;;;;;;;4.93;0.90;;;7.20;99.90;;;;;;5100718;28;20032;-63
2024/04/04 01:45:23;;;;;;;6.70;1.20;;;7.10;99.90;;;;;;5102154;28;20046;-63
2024/04/04 01:48:08;;;;;;;7.30;1.50;;;7.00;99.90;;;;;;5103610;28;20024;-63
2024/04/04 01:50:54;;;;;;;12.65;1.50;;;7.00;99.90;;;;;;5082855;28;20037;-63
2024/04/04 01:53:40;;;;;;;6.50;1.27;;;7.00;99.90;;;;;;5099672;28;20512;-63
2024/04/04 01:56:27;;;;;;;10.10;1.20;;;7.00;99.90;;;;;;5099282;28;20040;-63
2024/04/04 01:59:13;;;;;;;9.77;1.50;;;6.90;99.90;;;;;;5104198;28;20031;-63
2024/04/04 02:01:58;;;;;;;5.68;1.05;;;6.90;99.90;;;;;;5100180;28;20545;-63
2024/04/04 02:04:44;;;;;;;6.18;1.27;;;6.90;99.90;;;;;;5097084;28;20119;-63
2024/04/04 02:07:30;;;;;;;6.38;0.95;;;6.90;99.90;;;;;;5100650;28;20035;-63
2024/04/04 02:10:16;;;;;;;5.25;0.82;;;6.90;99.90;;;;;;5097170;28;20077;-63
2024/04/04 02:13:03;;;;;;;4.93;1.33;;;6.90;99.90;;;;;;5101824;28;20114;-63
2024/04/04 02:15:50;;;;;;;9.30;2.58;;;7.00;99.90;;;;;;5098437;28;20412;-63
2024/04/04 02:18:36;;;;;;;7.80;1.15;;;7.00;99.90;;;;;;5087855;28;20532;-63
2024/04/04 02:21:22;;;;;;;6.35;1.10;;;7.00;99.90;;;;;;5100435;28;20133;-63
2024/04/04 02:24:08;;;;;;;10.80;1.20;;;7.00;99.90;;;;;;5100861;28;20492;-63
2024/04/04 02:26:53;;;;;;;8.48;1.15;;;7.00;99.90;;;;;;5097434;28;20114;-63
2024/04/04 02:29:45;;;;;;;7.93;1.40;;;7.00;99.90;;;;;;5103671;28;20044;-63
2024/04/04 02:32:31;;;;;;;8.13;1.25;;;7.00;99.90;;;;;;5101502;28;20238;-63
2024/04/04 02:35:18;;;;;;;4.47;0.88;;;7.00;99.90;;;;;;5097927;28;20107;-63
2024/04/04 02:38:04;;;;;;;6.10;1.02;;;7.00;99.90;;;;;;5098191;28;20039;-63
2024/04/04 02:40:50;;;;;;;5.75;0.90;;;6.90;99.90;;;;;;5097877;28;20046;-63
2024/04/04 02:43:36;;;;;;;5.70;1.38;;;6.90;99.90;;;;;;5103796;28;20059;-63
2024/04/04 02:46:22;;;;;;;11.30;1.70;;;7.00;99.90;;;;;;5100168;28;20035;-63
2024/04/04 02:49:08;;;;;;;3.47;0.98;;;7.00;99.90;;;;;;5100060;28;20461;-63
2024/04/04 02:51:54;;;;;;;7.25;1.45;;;7.10;99.90;;;;;;5097321;28;20260;-63
2024/04/04 02:54:40;;;;;;;2.53;0.73;;;7.10;99.90;;;;;;5102544;28;20715;-63
2024/04/04 02:57:26;;;;;;;3.60;0.75;;;7.20;99.90;;;;;;5102394;28;20286;-63
2024/04/04 03:00:12;;;;;;;3.10;0.75;;;7.20;99.90;;;;;;5100536;28;20110;-63
2024/04/04 03:02:58;;;;;;;7.75;1.27;;;7.30;99.90;;;;;;5102126;28;20047;-63
2024/04/04 03:05:44;;;;;;;4.10;0.98;;;7.30;99.90;;;;;;5099113;28;20107;-63
2024/04/04 03:08:30;;;;;;;4.82;0.90;;;7.30;99.90;;;;;;5101811;28;20149;-63
2024/04/04 03:11:16;;;;;;;8.10;1.00;;;7.30;99.90;;;;;;5098390;28;20031;-63
2024/04/04 03:14:02;;;;;;;5.47;1.10;;;7.30;99.90;;;;;;5101752;28;20027;-63
2024/04/04 03:16:50;;;;;;;7.15;1.17;;;7.30;99.90;;;;;;5099789;28;20084;-63
2024/04/04 03:19:38;;;;;;;4.47;1.10;;;7.40;99.90;;;;;;5102467;28;20031;-63
2024/04/04 03:22:24;;;;;;;6.10;1.00;;;7.40;99.90;;;;;;5101211;28;20481;-63
2024/04/04 03:25:10;;;;;;;4.00;0.63;;;7.50;99.90;;;;;;5100409;28;20036;-63
2024/04/04 03:27:56;;;;;;;3.22;1.20;;;7.50;99.90;;;;;;5102455;28;20552;-63
2024/04/04 03:30:42;;;;;;;8.70;1.23;;;7.50;99.90;;;;;;5099622;28;20031;-63
2024/04/04 03:33:28;;;;;;;3.60;0.90;;;7.50;99.90;;;;;;5102197;28;20039;-63
2024/04/04 03:36:14;;;;;;;6.47;1.20;;;7.50;99.90;;;;;;5098616;28;20035;-63
2024/04/04 03:39:00;;;;;;;2.50;0.90;;;7.60;99.90;;;;;;5101356;28;20063;-63
2024/04/04 03:41:45;;;;;;;7.63;1.02;;;7.60;99.90;;;;;;5082939;28;20310;-63
2024/04/04 03:44:32;;;;;;;6.18;1.08;;;7.60;99.90;;;;;;5103433;28;20035;-63
2024/04/04 03:47:19;;;;;;;7.93;1.00;;;7.60;99.90;;;;;;5099594;28;20068;-63
2024/04/04 03:50:05;;;;;;;1.52;0.80;;;7.70;99.90;;;;;;5092997;28;20036;-63
2024/04/04 03:52:51;;;;;;;7.47;1.50;;;7.70;99.90;;;;;;5100818;28;20031;-63
2024/04/04 03:55:37;;;;;;;4.90;1.27;;;7.70;99.90;;;;;;5101747;28;20414;-63
2024/04/04 03:58:22;;;;;;;4.93;1.42;;;7.80;99.90;;;;;;5089368;28;20095;-63
2024/04/04 04:01:08;;;;;;;4.78;0.95;;;7.80;99.90;;;;;;5098359;28;20043;-63
2024/04/04 04:03:55;;;;;;;3.78;0.90;;;7.90;99.90;;;;;;5101302;28;20043;-63
2024/04/04 04:06:40;;;;;;;2.95;0.93;;;7.90;99.90;;;;;;5099194;28;20089;-63
2024/04/04 04:09:26;;;;;;;6.05;1.02;;;7.90;99.90;;;;;;5105216;28;20652;-63
2024/04/04 04:12:12;;;;;;;4.50;1.10;;;7.90;99.90;;;;;;5102979;28;20035;-63
2024/04/04 04:14:58;;;;;;;4.25;1.00;;;7.90;99.90;;;;;;5100050;28;20106;-63
2024/04/04 04:17:45;;;;;;;2.53;1.00;;;8.00;99.90;;;;;;5106095;28;20545;-63
2024/04/04 04:23:41;;;;;;;4.13;1.70;;;8.10;99.90;;;;;;5106856;28;20077;-63
2024/04/04 04:26:27;;;;;;;;;;;8.10;99.90;;;;;;5100201;28;20042;-63
2024/04/04 04:29:17;;;;;;;3.30;1.20;;;8.20;99.90;;;;;;5103273;28;19998;-63
2024/04/04 04:32:03;;;;;;;4.65;1.33;;;8.20;99.90;;;;;;5102135;28;20034;-63
2024/04/04 04:34:49;;;;;;;3.70;1.33;;;8.20;99.90;;;;;;5103904;28;20131;-63
2024/04/04 04:37:35;;;;;;;5.43;2.05;;;8.20;99.90;;;;;;5102423;28;20519;-63
2024/04/04 04:40:21;;;;;;;5.18;1.20;;;8.30;99.90;;;;;;5097441;28;20036;-63
2024/04/04 04:43:08;;;;;;;4.05;1.85;;;8.30;99.90;;;;;;5101382;28;20715;-63
2024/04/04 04:45:54;;;;;;;;;;;8.30;99.90;;;;;;5103588;28;20528;-63
2024/04/04 04:48:40;;;;;;;6.13;1.35;;;8.30;99.90;;;;;;5105519;28;19918;-63
2024/04/04 04:51:26;;;;;;;5.47;1.77;;;8.30;99.90;;;;;;5101262;28;20519;-64
2024/04/04 04:54:12;;;;;;;5.43;1.70;;;8.30;99.90;;;;;;5105068;28;20108;-64
2024/04/04 04:56:59;;;;;;;2.83;1.45;;;8.30;99.90;;;;;;5103814;28;20327;-63
2024/04/04 04:59:44;;;;;;;2.33;1.45;;;8.30;99.90;;;;;;5096944;28;20490;-63
2024/04/04 05:02:31;;;;;;;4.63;1.58;;;8.30;99.90;;;;;;5101624;28;20084;-63
2024/04/04 05:05:17;;;;;;;2.17;1.27;;;8.30;99.90;;;;;;5099856;28;20503;-63
2024/04/04 05:08:04;;;;;;;4.88;1.20;;;8.30;99.90;;;;;;5101679;28;20043;-64
2024/04/04 05:10:51;;;;;;;4.53;1.48;;;8.30;99.90;;;;;;5101676;28;20141;-64
2024/04/04 05:13:36;;;;;;;5.32;1.35;;;8.30;99.90;;;;;;5105050;28;20166;-63
2024/04/04 05:16:22;;;;;;;1.77;0.82;;;8.30;99.90;;;;;;5101527;28;20035;-63
2024/04/04 05:19:09;;;;;;;5.20;1.10;;;8.30;99.90;;;;;;5104382;28;20053;-63
2024/04/04 05:21:54;;;;;;;6.13;1.40;;;8.30;99.90;;;;;;5100738;28;20036;-64
2024/04/04 05:24:40;;;;;;;2.80;1.02;;;8.30;99.90;;;;;;5105147;28;20074;-64
2024/04/04 05:27:26;;;;;;;2.33;0.90;;;8.30;99.90;;;;;;5103125;28;20115;-64
2024/04/04 05:30:15;;;;;;;2.42;0.80;;;8.30;99.90;;;;;;5097224;28;20115;-63
2024/04/04 05:33:01;;;;;;;2.75;0.90;;;8.30;99.90;;;;;;5099887;28;20042;-64
2024/04/04 05:35:47;;;;;;;5.18;0.80;;;8.40;99.90;;;;;;5099178;28;20063;-64
2024/04/04 05:38:33;;;;;;;1.00;0.60;;;8.40;99.90;;;;;;5102242;28;20480;-63
2024/04/04 05:41:19;;;;;;;1.23;0.85;;;8.40;99.90;;;;;;5099689;28;20038;-64
2024/04/04 05:44:05;;;;;;;1.40;0.80;;;8.50;99.90;;;;;;5103496;27;20431;-63
2024/04/04 05:46:51;;;;;;;2.47;1.02;;;8.50;99.90;;;;;;5100154;28;20480;-63
2024/04/04 05:49:37;;;;;;;1.90;0.73;;;8.50;99.90;;;;;;5102859;28;20032;-64
2024/04/04 05:52:22;;;;;;;5.32;0.90;;;8.50;99.90;;;;;;5102822;28;20520;-64
2024/04/04 05:55:11;;;;;;;0.90;0.70;;;8.50;99.90;;;;;;5100556;28;20035;-64
2024/04/04 05:57:57;;;;;;;1.60;0.73;;;8.50;99.90;;;;;;5100331;28;20851;-64
2024/04/04 06:00:43;;;;;;;0.60;0.60;;;8.50;99.90;;;;;;5098192;28;20454;-63
2024/04/04 06:03:29;;;;;;;3.92;1.08;;;8.50;99.90;;;;;;5100749;28;20115;-63
2024/04/04 06:06:15;;;;;;;1.77;0.55;;;8.50;99.90;;;;;;5083927;28;20046;-63
2024/04/04 06:09:01;;;;;;;0.60;0.50;;;8.50;99.90;;;;;;5101114;28;20057;-63
2024/04/04 06:11:47;;;;;;;1.15;0.50;;;8.50;99.90;;;;;;5099720;28;20419;-63
2024/04/04 06:14:33;;;;;;;1.20;0.60;;;8.60;99.90;;;;;;5103910;28;20025;-63
2024/04/04 06:17:19;;;;;;;1.48;0.40;;;8.60;99.90;;;;;;5101073;28;20165;-63
2024/04/04 06:20:06;;;;;;;1.30;0.40;;;8.60;99.90;;;;;;5098940;28;20580;-63
2024/04/04 06:22:52;;;;;;;1.48;0.50;;;8.70;99.90;;;;;;5098720;28;20107;-63
2024/04/04 06:25:37;;;;;;;1.55;0.45;;;8.80;99.90;;;;;;5076501;28;20476;-62
2024/04/04 06:28:23;;;;;;;0.82;0.60;;;8.80;99.90;;;;;;5100792;28;20119;-62
2024/04/04 06:31:09;;;;;;;2.13;0.45;;;8.90;99.90;;;;;;5094626;28;20027;-63
2024/04/04 06:33:55;;;;;;;0.63;0.30;;;8.90;99.90;;;;;;5100071;28;20031;-62
2024/04/04 06:36:41;;;;;;;1.65;0.50;;;9.00;99.90;;;;;;5097576;28;20032;-62
2024/04/04 06:39:27;;;;;;;1.25;0.47;;;9.00;99.90;;;;;;5103175;28;20035;-62
2024/04/04 06:42:13;;;;;;;0.65;0.38;;;9.10;99.90;;;;;;5102818;28;20039;-62
2024/04/04 06:44:59;;;;;;;1.50;0.43;;;9.00;99.90;;;;;;5100883;28;20118;-63
2024/04/04 06:47:57;;;;;;;1.13;0.43;;;9.10;99.90;;;;;;5097372;28;20034;-62
2024/04/04 06:50:43;;;;;;;0.40;0.38;;;9.10;99.90;;;;;;5098850;28;20032;-63
2024/04/04 06:53:29;;;;;;;1.88;0.73;;;9.20;99.90;;;;;;5102002;28;20415;-62
2024/04/04 06:56:15;;;;;;;2.58;0.90;;;9.30;99.90;;;;;;5096985;28;20122;-63
2024/04/04 06:59:01;;;;;;;1.10;0.60;;;9.40;99.90;;;;;;5099912;28;20035;-63
2024/04/04 07:01:47;;;;;;;1.88;0.50;;;9.50;99.90;;;;;;5097159;28;20476;-62
2024/04/04 07:04:33;;;;;;;3.33;0.60;;;9.50;99.90;;;;;;5100574;28;20453;-62
2024/04/04 07:07:19;;;;;;;1.10;0.43;;;9.50;99.90;;;;;;5100722;28;20030;-62
2024/04/04 07:10:06;;;;;;;2.63;0.65;;;9.60;99.90;;;;;;5095438;28;20584;-62
2024/04/04 07:12:52;;;;;;;2.40;0.75;;;9.70;99.90;;;;;;5098434;28;20019;-62
2024/04/04 07:15:37;;;;;;;2.25;0.50;;;9.80;99.90;;;;;;5100551;28;20660;-63
2024/04/04 07:18:23;;;;;;;1.20;0.57;;;9.80;99.90;;;;;;5101151;28;20056;-62
2024/04/04 07:21:10;;;;;;;3.47;0.50;;;9.80;99.90;;;;;;5097844;28;20027;-62
2024/04/04 07:23:56;;;;;;;2.78;0.60;;;9.80;99.90;;;;;;5098045;28;20028;-63
2024/04/04 07:26:48;;;;;;;1.10;0.60;;;9.90;99.90;;;;;;5101668;28;20038;-63
2024/04/04 07:29:34;;;;;;;2.78;0.57;;;9.90;99.90;;;;;;5106507;28;20573;-63
2024/04/04 07:32:19;;;;;;;4.20;0.80;;;9.90;99.90;;;;;;5104494;27;20164;-63
2024/04/04 07:35:05;;;;;;;2.17;0.30;;;10.00;99.90;;;;;;5098904;28;20115;-63
2024/04/04 07:37:51;;;;;;;7.40;0.90;;;10.00;99.90;;;;;;5102082;28;20069;-63
2024/04/04 07:40:38;;;;;;;2.38;0.60;;;10.00;99.90;;;;;;5104751;27;20472;-63
2024/04/04 07:43:24;;;;;;;1.85;0.55;;;10.00;99.90;;;;;;5105436;28;20909;-63
2024/04/04 07:46:10;;;;;;;2.75;0.50;;;10.00;99.90;;;;;;5102774;28;20492;-63
2024/04/04 07:48:56;;;;;;;0.82;0.40;;;10.00;99.90;;;;;;5102730;28;20106;-62
2024/04/04 07:51:43;;;;;;;1.25;0.40;;;10.00;99.90;;;;;;5103989;28;20039;-62
2024/04/04 07:54:29;;;;;;;2.72;0.90;;;10.00;99.90;;;;;;5106321;28;20046;-62
2024/04/04 07:57:15;;;;;;;2.58;0.50;;;10.00;99.90;;;;;;5107595;28;20044;-62
2024/04/04 08:00:03;;;;;;;0.75;0.40;;;10.10;99.90;;;;;;5103118;28;20028;-62
2024/04/04 08:02:49;;;;;;;2.35;0.50;;;10.20;99.90;;;;;;5099974;28;20036;-62
2024/04/04 08:05:35;;;;;;;0.93;0.30;;;10.20;99.90;;;;;;5101390;28;20043;-62
2024/04/04 08:08:21;;;;;;;1.30;0.40;;;10.20;99.90;;;;;;5105269;28;20067;-62
2024/04/04 08:11:07;;;;;;;5.00;0.50;;;10.20;99.90;;;;;;5102275;28;20031;-62
2024/04/04 08:13:53;;;;;;;0.77;0.50;;;10.20;99.90;;;;;;5104163;28;20472;-62
2024/04/04 08:16:39;;;;;;;1.23;0.50;;;10.30;99.90;;;;;;5104341;28;20071;-63
2024/04/04 08:19:25;;;;;;;0.45;0.30;;;10.20;99.90;;;;;;5106008;28;20122;-63
2024/04/04 08:22:12;;;;;;;3.08;0.57;;;10.30;99.90;;;;;;5102215;28;20512;-62
2024/04/04 08:24:58;;;;;;;0.70;0.30;;;10.40;99.90;;;;;;5103102;28;20035;-62
2024/04/04 08:27:44;;;;;;;1.05;0.30;;;10.30;99.90;;;;;;5087322;28;20027;-62
2024/04/04 08:30:31;;;;;;;1.05;0.40;;;10.30;99.90;;;;;;5098819;28;20553;-62
2024/04/04 08:33:17;;;;;;;2.20;0.38;;;10.40;99.90;;;;;;5107133;28;20080;-63
2024/04/04 08:36:03;;;;;;;0.80;0.23;;;10.50;99.90;;;;;;5098248;28;20038;-63
2024/04/04 08:38:49;;;;;;;0.80;0.30;;;10.50;99.90;;;;;;5099799;28;20710;-62
2024/04/04 08:41:35;;;;;;;1.67;0.30;;;10.50;99.90;;;;;;5100368;28;20048;-63
2024/04/04 08:44:21;;;;;;;1.38;0.30;;;10.40;99.90;;;;;;5106016;28;20122;-62
2024/04/04 08:47:10;;;;;;;0.25;0.20;;;10.50;99.90;;;;;;5086301;28;20074;-62
2024/04/04 08:49:56;;;;;;;0.35;0.20;;;10.50;99.90;;;;;;5099203;28;20492;-62
2024/04/04 08:52:43;;;;;;;0.20;0.20;;;10.50;99.90;;;;;;5105017;28;20031;-62
2024/04/04 08:55:28;;;;;;;0.52;0.30;;;10.60;99.90;;;;;;5103229;28;20044;-62
2024/04/04 08:58:16;;;;;;;0.32;0.20;;;10.60;99.90;;;;;;5103361;28;20231;-62
2024/04/04 09:01:03;;;;;;;1.00;0.20;;;10.60;99.90;;;;;;5102367;28;20400;-62
2024/04/04 09:03:49;;;;;;;0.88;0.30;;;10.60;99.90;;;;;;5098849;28;20096;-62
2024/04/04 09:06:37;;;;;;;2.25;0.20;;;10.60;99.90;;;;;;5104003;28;20171;-62
2024/04/04 09:09:23;;;;;;;1.05;0.28;;;10.60;99.90;;;;;;5100197;28;20039;-62
2024/04/04 09:12:14;;;;;;;0.73;0.20;;;10.60;99.90;;;;;;5102836;28;20121;-62
2024/04/04 09:15:00;;;;;;;0.40;0.20;;;10.60;99.90;;;;;;5097405;28;20706;-62
2024/04/04 09:17:46;;;;;;;2.00;0.30;;;10.70;99.90;;;;;;5103158;28;20039;-63
2024/04/04 09:20:33;;;;;;;0.32;0.20;;;10.60;99.90;;;;;;5098010;28;20115;-63
2024/04/04 09:23:19;;;;;;;0.75;0.20;;;10.60;99.90;;;;;;5104867;28;20028;-63
2024/04/04 09:26:05;;;;;;;2.28;0.32;;;10.60;99.90;;;;;;5100629;28;20043;-63
2024/04/04 09:28:53;;;;;;;1.67;0.20;;;10.60;99.90;;;;;;5098657;28;20027;-63
2024/04/04 09:31:41;;;;;;;0.73;0.28;;;10.60;99.90;;;;;;5098774;28;20036;-63
2024/04/04 09:34:28;;;;;;;1.17;0.20;;;10.60;99.90;;;;;;5103278;28;20081;-62
2024/04/04 09:37:14;;;;;;;;;;;10.60;99.90;;;;;;5102917;28;20043;-62
2024/04/04 09:40:00;;;;;;;1.17;0.20;;;10.60;99.90;;;;;;5103051;28;19993;-62
2024/04/04 09:42:46;;;;;;;0.73;0.30;;;10.50;99.90;;;;;;5103494;28;20034;-62
2024/04/04 09:45:35;;;;;;;0.47;0.20;;;10.50;99.90;;;;;;5098188;28;20126;-62
2024/04/04 09:48:21;;;;;;;0.22;0.20;;;10.40;99.90;;;;;;5102360;28;20027;-62
2024/04/04 09:51:08;;;;;;;0.28;0.20;;;10.40;99.90;;;;;;5097750;28;20471;-63
2024/04/04 09:53:57;;;;;;;0.85;0.30;;;10.40;99.90;;;;;;5103873;28;20176;-62
2024/04/04 09:56:43;;;;;;;0.63;0.28;;;10.40;99.90;;;;;;5098098;28;20110;-62
2024/04/04 09:59:30;;;;;;;3.08;0.40;;;10.50;99.90;;;;;;5104372;28;20039;-63
2024/04/04 10:02:15;;;;;;;;;;;10.50;99.90;;;;;;5086707;28;20085;-62
2024/04/04 10:05:13;;;;;;;1.95;0.40;;;10.50;99.90;;;;;;5097265;28;19919;-62
2024/04/04 10:08:13;;;;;;;0.65;0.28;;;10.50;99.90;;;;;;5097379;28;20079;-62
2024/04/04 10:11:05;;;;;;;0.77;0.20;;;10.50;99.90;;;;;;5098176;28;20031;-63
2024/04/04 10:13:58;;;;;;;0.88;0.20;;;10.60;99.90;;;;;;5093897;28;20030;-62
2024/04/04 10:16:45;;;;;;;0.40;0.30;;;10.60;99.90;;;;;;5097970;28;20673;-63
2024/04/04 10:19:34;;;;;;;0.52;0.30;;;10.70;99.90;;;;;;5095827;28;20037;-63
2024/04/04 10:22:24;;;;;;;1.85;0.40;;;11.00;99.90;;;;;;5096144;28;20032;-63
2024/04/04 10:25:10;;;;;;;0.80;0.28;;;11.40;99.90;;;;;;5096232;28;20035;-63
2024/04/04 10:28:04;;;;;;;1.17;0.30;;;11.70;99.90;;;;;;5085845;28;20027;-63
2024/04/04 10:30:50;;;;;;;1.15;0.50;;;12.00;99.90;;;;;;5093084;28;20031;-63
2024/04/04 10:33:35;;;;;;;0.68;0.30;;;12.20;99.90;;;;;;5102158;28;20590;-62
2024/04/04 10:36:21;;;;;;;0.90;0.40;;;12.30;99.90;;;;;;5097846;28;20049;-63
2024/04/04 10:39:18;;;;;;;1.55;0.30;;;12.10;99.90;;;;;;5103836;28;20035;-63
2024/04/04 10:42:05;;;;;;;2.65;0.57;;;11.90;99.90;;;;;;5096300;28;20526;-63
2024/04/04 10:44:52;;;;;;;0.90;0.30;;;11.90;99.90;;;;;;5079969;28;20484;-63
2024/04/04 10:47:38;;;;;;;;;;;11.90;99.90;;;;;;5099865;28;20543;-63
2024/04/04 10:50:29;;;;;;;2.60;0.45;;;11.90;99.90;;;;;;5086464;28;19912;-63
2024/04/04 10:53:15;;;;;;;0.98;0.40;;;11.80;99.90;;;;;;5099989;28;20055;-63
2024/04/04 10:56:01;;;;;;;2.80;0.40;;;11.60;99.90;;;;;;5084675;28;20122;-63
2024/04/04 10:58:47;;;;;;;1.27;0.25;;;11.50;99.90;;;;;;5097898;28;20300;-63
2024/04/04 11:01:33;;;;;;;0.43;0.20;;;11.80;99.90;;;;;;5095341;28;20040;-63
2024/04/04 11:04:19;;;;;;;1.33;0.40;;;12.10;99.90;;;;;;5102275;28;20092;-63
2024/04/04 11:07:05;;;;;;;2.63;0.20;;;12.30;99.90;;;;;;5097936;28;20038;-63
2024/04/04 11:09:53;;;;;;;1.17;0.43;;;12.30;99.90;;;;;;5085868;28;20027;-63
2024/04/04 11:12:39;;;;;;;1.35;0.40;;;12.20;99.90;;;;;;5101187;28;20115;-63
2024/04/04 11:15:25;;;;;;;1.38;0.40;;;12.00;99.90;;;;;;5101093;28;20039;-63
2024/04/04 11:18:11;;;;;;;3.50;0.50;;;11.80;99.90;;;;;;5099551;28;20090;-63
2024/04/04 11:20:57;;;;;;;2.50;0.30;;;11.80;99.90;;;;;;5093187;28;20100;-62
2024/04/04 11:23:43;;;;;;;0.95;0.30;;;11.80;99.90;;;;;;5101673;28;20039;-63
2024/04/04 11:26:30;;;;;;;0.65;0.40;;;11.90;99.90;;;;;;5098350;28;20043;-63
2024/04/04 11:29:16;;;;;;;1.08;0.40;;;11.90;99.90;;;;;;5099716;28;20036;-63
2024/04/04 11:32:02;;;;;;;1.38;0.30;;;12.00;99.90;;;;;;5089243;28;20432;-62
2024/04/04 11:34:48;;;;;;;3.00;0.47;;;12.00;99.90;;;;;;5101171;28;20557;-62
2024/04/04 11:37:37;;;;;;;0.88;0.47;;;11.80;99.90;;;;;;5101086;28;20038;-62
2024/04/04 11:40:23;;;;;;;1.10;0.40;;;11.80;99.90;;;;;;5098182;28;20039;-63
2024/04/04 11:43:08;;;;;;;3.83;0.40;;;11.70;99.90;;;;;;5099127;28;20032;-63
2024/04/04 11:45:54;;;;;;;2.00;0.40;;;11.70;99.90;;;;;;5101218;28;20392;-63
2024/04/04 11:48:40;;;;;;;1.50;0.50;;;11.80;99.90;;;;;;5100630;28;20417;-63
2024/04/04 11:51:26;;;;;;;1.37;0.40;;;11.80;99.90;;;;;;5095561;28;20035;-62
2024/04/04 11:54:12;;;;;;;1.25;0.50;;;11.70;99.90;;;;;;5101474;28;20028;-62
2024/04/04 11:56:58;;;;;;;1.85;0.50;;;11.50;99.90;;;;;;5099038;28;20041;-62
2024/04/04 11:59:44;;;;;;;1.77;0.68;;;11.40;99.90;;;;;;5098092;28;20065;-63
2024/04/04 12:02:30;;;;;;;2.47;0.52;;;11.50;99.90;;;;;;5100383;28;20071;-62
2024/04/04 12:05:16;;;;;;;2.95;0.70;;;11.50;99.90;;;;;;5094948;28;20409;-63
2024/04/04 12:08:02;;;;;;;1.95;0.68;;;11.30;99.90;;;;;;5098372;28;20120;-62
2024/04/04 12:10:48;;;;;;;3.22;0.50;;;11.30;99.90;;;;;;5098081;28;20095;-63
2024/04/04 12:13:34;;;;;;;3.80;0.60;;;11.30;99.90;;;;;;5102621;28;20055;-62
2024/04/04 12:16:20;;;;;;;3.28;0.50;;;11.20;99.90;;;;;;5103830;28;20059;-63
2024/04/04 12:22:10;;;;;;;3.88;0.93;;;11.30;99.90;;;;;;5103315;28;20039;-63
2024/04/04 12:24:56;;;;;;;1.38;0.40;;;11.50;99.90;;;;;;5102841;28;20319;-63
2024/04/04 12:27:43;;;;;;;3.05;0.63;;;11.60;99.90;;;;;;5099354;28;20047;-63
2024/04/04 12:30:28;;;;;;;3.22;0.63;;;11.90;99.90;;;;;;5099228;28;20072;-63
2024/04/04 12:33:14;;;;;;;4.82;0.50;;;12.30;99.90;;;;;;5103339;28;20038;-63
2024/04/04 12:36:00;;;;;;;2.13;0.60;;;12.60;99.90;;;;;;5097263;28;20032;-63
2024/04/04 12:38:46;;;;;;;4.38;0.60;;;12.50;99.90;;;;;;5104782;28;20027;-63
2024/04/04 12:41:32;;;;;;;2.33;0.30;;;12.30;99.90;;;;;;5096304;28;20027;-62
2024/04/04 12:44:19;;;;;;;3.08;0.75;;;11.90;99.90;;;;;;5099316;28;20107;-63
2024/04/04 12:47:05;;;;;;;2.13;0.77;;;11.70;99.90;;;;;;5097767;28;20043;-62
2024/04/04 12:49:51;;;;;;;1.98;0.63;;;11.60;99.90;;;;;;5099091;28;20093;-63
2024/04/04 12:52:37;;;;;;;2.80;0.80;;;11.40;99.90;;;;;;5102608;28;20035;-63
2024/04/04 12:55:23;;;;;;;1.80;0.50;;;11.10;99.90;;;;;;5103887;28;20514;-62
2024/04/04 12:58:09;;;;;;;2.22;0.50;;;11.10;99.90;;;;;;5102285;28;20469;-63
2024/04/04 13:00:58;;;;;;;2.22;0.40;;;11.10;99.90;;;;;;5101802;28;20036;-63
2024/04/04 13:03:44;;;;;;;3.55;0.55;;;11.20;99.90;;;;;;5103660;28;20039;-63
2024/04/04 13:06:31;;;;;;;5.60;0.85;;;11.20;99.90;;;;;;5100157;28;20046;-63
2024/04/04 13:09:16;;;;;;;1.05;0.52;;;11.20;99.90;;;;;;5104277;28;20038;-63
2024/04/04 13:12:03;;;;;;;2.47;0.45;;;11.20;99.90;;;;;;5102482;28;20027;-63
2024/04/04 13:14:50;;;;;;;2.67;0.50;;;11.20;99.90;;;;;;5099102;28;20027;-63
2024/04/04 13:17:36;;;;;;;1.08;0.30;;;11.10;99.90;;;;;;5103280;28;20404;-63
2024/04/04 13:20:22;;;;;;;1.02;0.30;;;11.00;99.90;;;;;;5101513;28;20496;-63
2024/04/04 13:23:08;;;;;;;0.50;0.30;;;10.90;99.90;;;;;;5102221;28;20027;-63
2024/04/04 13:25:54;;;;;;;2.50;0.40;;;10.80;99.90;;;;;;5099606;28;20729;-63
2024/04/04 13:28:40;;;;;;;4.15;0.60;;;10.70;99.90;;;;;;5103921;28;20723;-63
2024/04/04 13:31:26;;;;;;;1.50;0.45;;;10.60;99.90;;;;;;5102736;28;20038;-63
2024/04/04 13:34:12;;;;;;;4.27;0.77;;;10.40;99.90;;;;;;5104396;28;20106;-63
2024/04/04 13:36:58;;;;;;;3.72;0.70;;;10.20;99.90;;;;;;5104065;28;20360;-63
2024/04/04 13:39:45;;;;;;;2.57;0.40;;;10.00;99.90;;;;;;5102538;28;20119;-63
2024/04/04 13:42:31;;;;;;;2.08;0.68;;;9.90;99.90;;;;;;5104084;28;20047;-62
2024/04/04 13:45:17;;;;;;;6.10;0.80;;;9.70;99.90;;;;;;5087675;28;20032;-62
2024/04/04 13:48:05;;;;;;;6.40;1.13;;;9.60;99.90;;;;;;5103892;28;20480;-62
2024/04/04 13:50:51;;;;;;;6.63;1.20;;;9.50;99.90;;;;;;5100759;28;20477;-62
2024/04/04 13:53:37;;;;;;;3.97;1.67;;;9.50;99.90;;;;;;5101728;28;20031;-63
2024/04/04 13:56:23;;;;;;;5.15;0.85;;;9.50;99.90;;;;;;5103472;28;20092;-62
2024/04/04 13:59:08;;;;;;;1.85;0.73;;;9.50;99.90;;;;;;5102336;28;20042;-63
2024/04/04 14:01:54;;;;;;;3.38;0.70;;;9.50;99.90;;;;;;5101313;28;20040;-63
2024/04/04 14:04:40;;;;;;;3.30;0.70;;;9.40;99.90;;;;;;5101948;28;20690;-63
2024/04/04 14:07:26;;;;;;;4.53;1.10;;;9.40;99.90;;;;;;5102506;28;20036;-62
2024/04/04 14:10:12;;;;;;;2.90;0.90;;;9.30;99.90;;;;;;5100247;28;20062;-62
2024/04/04 14:12:58;;;;;;;3.70;1.20;;;9.30;99.90;;;;;;5102582;28;20139;-62
2024/04/04 14:15:45;;;;;;;6.95;1.00;;;9.30;99.90;;;;;;5100406;28;20083;-63
2024/04/04 14:18:30;;;;;;;6.03;1.10;;;9.30;99.90;;;;;;5101241;28;20035;-62
2024/04/04 14:21:16;;;;;;;3.90;1.00;;;9.30;99.90;;;;;;5102282;28;20040;-63
2024/04/04 14:24:02;;;;;;;8.77;1.17;;;9.40;99.90;;;;;;5098773;28;20737;-62
2024/04/04 14:26:49;;;;;;;3.53;0.70;;;9.60;99.90;;;;;;5100685;28;20568;-62
2024/04/04 14:29:35;;;;;;;3.33;1.20;;;9.70;99.90;;;;;;5102201;28;20540;-62
2024/04/04 14:32:21;;;;;;;5.95;1.42;;;9.80;99.90;;;;;;5100382;28;20062;-62
2024/04/04 14:35:07;;;;;;;9.02;1.27;;;10.10;99.90;;;;;;5100391;28;20027;-62
2024/04/04 14:37:55;;;;;;;4.10;1.07;;;10.20;99.90;;;;;;5101182;28;20062;-63